createdAt,value
2023-02-13T00:00:46.075Z,9.50
2023-02-13T00:03:14.023Z,11.63
2023-02-13T00:05:40.932Z,9.80
2023-02-13T00:08:07.871Z,10.87
2023-02-13T00:10:34.870Z,9.80
2023-02-13T00:13:01.769Z,10.97
2023-02-13T00:15:28.686Z,9.87
2023-02-13T00:17:55.604Z,11.67
2023-02-13T00:20:22.743Z,10.03
2023-02-13T00:22:49.645Z,11.17
2023-02-13T00:25:16.599Z,11.00
2023-02-13T00:27:43.570Z,8.60
2023-02-13T00:30:11.063Z,10.23
2023-02-13T00:32:37.950Z,9.67
2023-02-13T00:35:05.009Z,8.77
2023-02-13T00:37:33.358Z,7.03
2023-02-13T00:40:00.276Z,10.80
2023-02-13T00:42:27.169Z,8.23
2023-02-13T00:44:54.588Z,8.30
2023-02-13T00:47:22.048Z,8.53
2023-02-13T00:49:50.027Z,10.20
2023-02-13T00:52:16.929Z,6.90
2023-02-13T00:54:44.140Z,9.70
2023-02-13T00:57:12.822Z,8.17
2023-02-13T00:59:39.732Z,8.20
2023-02-13T01:02:06.605Z,7.80
2023-02-13T01:04:33.543Z,9.20
2023-02-13T01:07:00.551Z,10.10
2023-02-13T01:09:27.454Z,6.20
2023-02-13T01:11:54.379Z,6.97
2023-02-13T01:14:21.329Z,7.27
2023-02-13T01:16:49.508Z,8.93
2023-02-13T01:19:16.813Z,8.83
2023-02-13T01:21:44.392Z,9.23
2023-02-13T01:24:11.329Z,9.23
2023-02-13T01:26:38.289Z,8.70
2023-02-13T01:29:05.345Z,7.27
2023-02-13T01:31:32.893Z,11.60
2023-02-13T01:34:00.372Z,8.10
2023-02-13T01:36:27.820Z,8.50
2023-02-13T01:38:59.286Z,8.97
2023-02-13T01:41:27.774Z,7.23
2023-02-13T01:44:00.459Z,7.07
2023-02-13T01:46:39.041Z,8.70
2023-02-13T01:49:22.911Z,7.77
2023-02-13T01:51:54.311Z,6.70
2023-02-13T01:54:31.135Z,8.20
2023-02-13T01:57:18.556Z,7.20
2023-02-13T01:59:57.892Z,7.73
2023-02-13T02:02:29.205Z,7.10
2023-02-13T02:05:03.134Z,6.27
2023-02-13T02:07:31.834Z,12.40
2023-02-13T02:10:09.636Z,7.00
2023-02-13T02:12:52.551Z,10.50
2023-02-13T02:15:20.263Z,6.27
2023-02-13T02:17:47.631Z,6.77
2023-02-13T02:20:36.223Z,6.50
2023-02-13T02:23:49.733Z,7.73
2023-02-13T02:26:52.152Z,9.47
2023-02-13T02:29:41.458Z,6.67
2023-02-13T02:32:50.243Z,6.70
2023-02-13T02:35:54.698Z,11.43
2023-02-13T02:38:56.375Z,10.13
2023-02-13T02:42:03.801Z,7.07
2023-02-13T02:44:48.306Z,6.80
2023-02-13T02:47:53.538Z,7.40
2023-02-13T02:50:54.923Z,7.23
2023-02-13T02:53:44.369Z,8.97
2023-02-13T02:56:24.657Z,6.93
2023-02-13T02:59:20.505Z,7.23
2023-02-13T03:02:07.302Z,6.20
2023-02-13T03:05:00.006Z,6.50
2023-02-13T03:07:27.461Z,11.10
2023-02-13T03:10:17.335Z,7.40
2023-02-13T03:13:18.189Z,7.47
2023-02-13T03:16:05.531Z,6.40
2023-02-13T03:18:56.169Z,6.63
2023-02-13T03:22:05.967Z,9.20
2023-02-13T03:24:42.010Z,8.57
2023-02-13T03:27:46.907Z,10.90
2023-02-13T03:30:56.783Z,11.37
2023-02-13T03:33:57.282Z,8.63
2023-02-13T03:37:20.123Z,10.43
2023-02-13T03:40:08.952Z,12.70
2023-02-13T03:42:44.987Z,8.70
2023-02-13T03:45:37.612Z,8.43
2023-02-13T03:48:10.056Z,10.77
2023-02-13T03:50:44.449Z,7.93
2023-02-13T03:53:14.713Z,10.33
2023-02-13T03:56:04.874Z,9.67
2023-02-13T03:59:01.669Z,9.10
2023-02-13T04:01:32.180Z,9.20
2023-02-13T04:04:30.385Z,9.00
2023-02-13T04:07:29.394Z,11.53
2023-02-13T04:10:08.341Z,9.90
2023-02-13T04:12:54.079Z,10.40
2023-02-13T04:15:32.884Z,13.17
2023-02-13T04:18:19.357Z,10.80
2023-02-13T04:20:46.330Z,11.90
2023-02-13T04:23:13.847Z,10.10
2023-02-13T04:25:43.959Z,9.07
2023-02-13T04:28:10.880Z,10.10
2023-02-13T04:30:38.292Z,11.50
2023-02-13T04:33:05.338Z,10.73
2023-02-13T04:35:32.222Z,14.33
2023-02-13T04:37:59.125Z,8.77
2023-02-13T04:40:26.040Z,12.60
2023-02-13T04:42:52.913Z,9.33
2023-02-13T04:45:19.829Z,15.73
2023-02-13T04:47:51.490Z,9.63
2023-02-13T04:50:19.163Z,10.20
2023-02-13T04:52:46.206Z,9.33
2023-02-13T04:55:13.855Z,12.00
2023-02-13T04:57:40.732Z,11.10
2023-02-13T05:00:08.515Z,11.00
2023-02-13T05:02:35.367Z,13.20
2023-02-13T05:05:02.277Z,9.10
2023-02-13T05:07:29.214Z,12.43
2023-02-13T05:09:56.088Z,10.80
2023-02-13T05:12:22.924Z,9.90
2023-02-13T05:14:49.908Z,9.90
2023-02-13T05:17:16.856Z,15.10
2023-02-13T05:19:43.709Z,14.10
2023-02-13T05:22:30.166Z,10.27
2023-02-13T05:24:57.149Z,12.20
2023-02-13T05:27:24.056Z,11.63
2023-02-13T05:29:50.920Z,18.47
2023-02-13T05:32:17.923Z,20.13
2023-02-13T05:34:44.890Z,11.17
2023-02-13T05:37:11.785Z,10.70
2023-02-13T05:39:38.716Z,12.20
2023-02-13T05:42:05.917Z,14.20
2023-02-13T05:44:33.021Z,13.40
2023-02-13T05:46:59.908Z,10.80
2023-02-13T05:49:26.840Z,11.73
2023-02-13T05:51:53.695Z,11.77
2023-02-13T05:54:20.607Z,10.77
2023-02-13T05:56:47.502Z,13.00
2023-02-13T05:59:14.410Z,12.50
2023-02-13T06:01:41.503Z,15.13
2023-02-13T06:04:08.479Z,12.97
2023-02-13T06:06:35.424Z,14.60
2023-02-13T06:09:02.292Z,11.63
2023-02-13T06:11:29.298Z,24.80
2023-02-13T06:13:56.218Z,14.23
2023-02-13T06:16:23.200Z,11.83
2023-02-13T06:18:50.122Z,13.90
2023-02-13T06:21:17.018Z,13.37
2023-02-13T06:23:43.908Z,13.47
2023-02-13T06:26:10.808Z,12.20
2023-02-13T06:28:37.773Z,12.80
2023-02-13T06:31:05.085Z,12.37
2023-02-13T06:33:32.067Z,10.80
2023-02-13T06:35:59.497Z,12.77
2023-02-13T06:38:26.380Z,14.53
2023-02-13T06:40:53.297Z,14.20
2023-02-13T06:43:20.178Z,15.17
2023-02-13T06:45:47.281Z,11.87
2023-02-13T06:48:15.011Z,12.40
2023-02-13T06:50:41.936Z,11.63
2023-02-13T06:53:08.887Z,11.47
2023-02-13T06:55:36.752Z,17.50
2023-02-13T06:58:03.663Z,13.83
2023-02-13T07:00:30.605Z,11.50
2023-02-13T07:03:03.830Z,10.67
2023-02-13T07:05:30.788Z,11.63
2023-02-13T07:07:57.655Z,14.00
2023-02-13T07:10:24.569Z,11.17
2023-02-13T07:13:04.681Z,11.53
2023-02-13T07:15:34.549Z,15.33
2023-02-13T07:18:01.919Z,11.70
2023-02-13T07:20:29.278Z,12.20
2023-02-13T07:23:00.583Z,12.00
2023-02-13T07:25:28.580Z,10.60
2023-02-13T07:27:55.855Z,10.90
2023-02-13T07:30:22.765Z,11.30
2023-02-13T07:32:50.963Z,13.07
2023-02-13T07:35:17.936Z,11.93
2023-02-13T07:37:44.804Z,10.20
2023-02-13T07:40:11.956Z,11.67
2023-02-13T07:42:38.867Z,11.57
2023-02-13T07:45:07.517Z,13.90
2023-02-13T07:47:35.181Z,11.00
2023-02-13T07:50:05.884Z,12.40
2023-02-13T07:52:33.432Z,10.97
2023-02-13T07:55:00.345Z,10.97
2023-02-13T07:57:27.225Z,13.23
2023-02-13T07:59:54.115Z,15.00
2023-02-13T08:02:21.008Z,13.73
2023-02-13T08:04:47.910Z,13.00
2023-02-13T08:07:17.388Z,12.73
2023-02-13T08:10:04.142Z,11.90
2023-02-13T08:12:32.453Z,14.80
2023-02-13T08:14:59.327Z,14.13
2023-02-13T08:17:26.282Z,13.33
2023-02-13T08:19:53.178Z,12.73
2023-02-13T08:22:20.089Z,15.03
2023-02-13T08:24:47.017Z,12.37
2023-02-13T08:27:15.338Z,13.47
2023-02-13T08:29:42.221Z,11.73
2023-02-13T08:32:09.583Z,12.07
2023-02-13T08:34:36.535Z,15.20
2023-02-13T08:37:04.749Z,11.90
2023-02-13T08:39:31.620Z,17.33
2023-02-13T08:41:58.563Z,13.80
2023-02-13T08:44:25.422Z,11.93
2023-02-13T08:46:52.371Z,12.13
2023-02-13T08:49:19.277Z,19.80
2023-02-13T08:51:46.161Z,11.97
2023-02-13T08:54:13.315Z,13.60
2023-02-13T08:56:40.180Z,15.87
2023-02-13T08:59:07.026Z,11.43
2023-02-13T09:01:34.036Z,13.17
2023-02-13T09:04:00.935Z,12.50
2023-02-13T09:06:28.404Z,14.10
2023-02-13T09:08:55.539Z,11.03
2023-02-13T09:11:23.566Z,10.60
2023-02-13T09:13:53.581Z,10.77
2023-02-13T09:16:21.295Z,13.37
2023-02-13T09:18:52.429Z,12.50
2023-02-13T09:21:22.014Z,18.07
2023-02-13T09:23:48.911Z,15.00
2023-02-13T09:26:19.052Z,14.10
2023-02-13T09:28:47.374Z,14.70
2023-02-13T09:31:21.751Z,17.43
2023-02-13T09:33:50.360Z,14.67
2023-02-13T09:36:24.032Z,14.17
2023-02-13T09:38:56.645Z,18.33
2023-02-13T09:41:36.215Z,18.17
2023-02-13T09:44:34.877Z,13.93
2023-02-13T09:47:11.968Z,14.20
2023-02-13T09:49:44.731Z,11.67
2023-02-13T09:52:11.682Z,14.10
2023-02-13T09:54:38.680Z,12.17
2023-02-13T09:57:17.718Z,17.30
2023-02-13T10:00:16.403Z,13.53
2023-02-13T10:03:07.714Z,16.93
2023-02-13T10:06:00.291Z,15.00
2023-02-13T10:09:09.616Z,16.10
2023-02-13T10:12:01.413Z,16.73
2023-02-13T10:14:36.464Z,17.10
2023-02-13T10:17:12.654Z,13.40
2023-02-13T10:19:49.011Z,15.90
2023-02-13T10:22:30.465Z,21.00
2023-02-13T10:25:10.865Z,15.30
2023-02-13T10:27:47.005Z,14.20
2023-02-13T10:30:36.713Z,14.37
2023-02-13T10:33:20.349Z,14.10
2023-02-13T10:35:59.369Z,13.80
2023-02-13T10:38:31.642Z,17.33
2023-02-13T10:41:46.355Z,15.00
2023-02-13T10:44:42.210Z,16.83
2023-02-13T10:48:09.224Z,14.67
2023-02-13T10:51:26.333Z,14.53
2023-02-13T10:54:16.083Z,22.23
2023-02-13T10:57:16.156Z,16.10
2023-02-13T10:59:59.487Z,13.10
2023-02-13T11:02:29.766Z,19.10
2023-02-13T11:05:12.278Z,14.67
2023-02-13T11:07:39.696Z,15.30
2023-02-13T11:10:18.324Z,14.80
2023-02-13T11:12:45.938Z,13.00
2023-02-13T11:15:32.022Z,15.20
2023-02-13T11:18:19.921Z,15.50
2023-02-13T11:20:48.790Z,14.70
2023-02-13T11:23:36.981Z,16.23
2023-02-13T11:26:11.990Z,20.10
2023-02-13T11:28:53.975Z,15.47
2023-02-13T11:31:35.133Z,15.93
2023-02-13T11:34:21.879Z,15.77
2023-02-13T11:36:54.273Z,15.20
2023-02-13T11:39:27.137Z,14.60
2023-02-13T11:41:54.037Z,14.63
2023-02-13T11:44:31.641Z,13.57
2023-02-13T11:47:00.941Z,14.80
2023-02-13T11:49:34.433Z,17.53
2023-02-13T11:52:07.955Z,18.47
2023-02-13T11:54:39.158Z,15.87
2023-02-13T11:57:33.707Z,16.00
2023-02-13T12:00:29.303Z,15.67
2023-02-13T12:02:56.287Z,20.50
2023-02-13T12:05:27.559Z,17.13
2023-02-13T12:08:01.874Z,14.37
2023-02-13T12:10:34.111Z,17.33
2023-02-13T12:13:15.840Z,15.70
2023-02-13T12:15:44.846Z,15.60
2023-02-13T12:18:40.330Z,17.73
2023-02-13T12:21:42.965Z,16.00
2023-02-13T12:24:46.861Z,18.77
2023-02-13T12:27:48.621Z,18.23
2023-02-13T12:30:31.291Z,16.90
2023-02-13T12:33:34.903Z,21.13
2023-02-13T12:36:21.343Z,16.60
2023-02-13T12:39:25.088Z,18.33
2023-02-13T12:42:33.098Z,23.73
2023-02-13T12:45:18.294Z,17.00
2023-02-13T12:48:27.851Z,17.93
2023-02-13T12:51:19.600Z,16.60
2023-02-13T12:54:36.781Z,16.23
2023-02-13T12:57:12.798Z,23.50
2023-02-13T13:00:20.451Z,16.40
2023-02-13T13:03:27.224Z,18.80
2023-02-13T13:06:22.571Z,19.77
2023-02-13T13:09:35.228Z,15.00
2023-02-13T13:12:50.636Z,17.77
2023-02-13T13:15:55.549Z,13.53
2023-02-13T13:18:53.058Z,14.03
2023-02-13T13:21:47.576Z,14.80
2023-02-13T13:24:25.721Z,13.60
2023-02-13T13:26:57.357Z,13.87
2023-02-13T13:29:40.503Z,21.53
2023-02-13T13:32:13.733Z,17.33
2023-02-13T13:34:40.651Z,18.93
2023-02-13T13:37:37.406Z,13.30
2023-02-13T13:40:42.840Z,17.13
2023-02-13T13:43:33.804Z,16.00
2023-02-13T13:46:35.999Z,15.67
2023-02-13T13:49:52.741Z,16.00
2023-02-13T13:52:22.654Z,13.53
2023-02-13T13:54:53.044Z,16.00
2023-02-13T13:57:24.876Z,17.53
2023-02-13T14:00:02.117Z,14.20
2023-02-13T14:03:11.092Z,14.30
2023-02-13T14:06:01.013Z,12.77
2023-02-13T14:08:44.317Z,19.10
2023-02-13T14:11:46.733Z,15.33
2023-02-13T14:14:36.525Z,18.43
2023-02-13T14:17:04.525Z,13.17
2023-02-13T14:19:40.454Z,12.10
2023-02-13T14:22:19.597Z,13.00
2023-02-13T14:25:26.102Z,14.73
2023-02-13T14:28:04.905Z,12.43
2023-02-13T14:30:35.709Z,12.03
2023-02-13T14:33:25.990Z,11.90
2023-02-13T14:36:03.753Z,11.77
2023-02-13T14:38:31.188Z,11.53
2023-02-13T14:40:59.036Z,14.07
2023-02-13T14:43:51.385Z,13.20
2023-02-13T14:46:41.256Z,14.67
2023-02-13T14:49:17.885Z,11.70
2023-02-13T14:51:54.640Z,15.80
2023-02-13T14:54:37.616Z,19.67
2023-02-13T14:57:26.131Z,14.17
2023-02-13T15:00:08.673Z,12.17
2023-02-13T15:02:46.853Z,13.60
2023-02-13T15:05:22.125Z,15.07
2023-02-13T15:08:13.340Z,10.17
2023-02-13T15:10:52.279Z,14.07
2023-02-13T15:13:37.415Z,13.53
2023-02-13T15:16:09.910Z,15.00
2023-02-13T15:18:42.080Z,13.47
2023-02-13T15:21:20.176Z,15.20
2023-02-13T15:23:53.091Z,12.57
2023-02-13T15:26:23.896Z,10.57
2023-02-13T15:29:27.807Z,12.93
2023-02-13T15:31:58.906Z,17.53
2023-02-13T15:34:35.772Z,11.53
2023-02-13T15:37:03.299Z,15.20
2023-02-13T15:39:32.306Z,10.60
2023-02-13T15:42:01.853Z,11.50
2023-02-13T15:44:33.077Z,14.23
2023-02-13T15:47:16.373Z,13.07
2023-02-13T15:49:46.226Z,16.00
2023-02-13T15:52:35.166Z,12.47
2023-02-13T15:55:02.094Z,15.67
2023-02-13T15:57:29.622Z,12.87
2023-02-13T15:59:57.640Z,13.20
2023-02-13T16:02:48.698Z,10.00
2023-02-13T16:05:20.013Z,11.83
2023-02-13T16:07:59.601Z,11.40
2023-02-13T16:10:33.357Z,12.97
2023-02-13T16:13:16.737Z,12.93
2023-02-13T16:15:44.411Z,18.83
2023-02-13T16:18:20.092Z,11.30
2023-02-13T16:20:53.570Z,12.00
2023-02-13T16:23:21.162Z,12.97
2023-02-13T16:25:48.808Z,10.90
2023-02-13T16:28:22.166Z,18.20
2023-02-13T16:30:59.974Z,12.30
2023-02-13T16:33:33.353Z,12.33
2023-02-13T16:36:10.597Z,11.03
2023-02-13T16:38:49.479Z,10.00
2023-02-13T16:41:19.348Z,9.83
2023-02-13T16:43:57.331Z,11.03
2023-02-13T16:46:34.430Z,14.73
2023-02-13T16:49:10.425Z,11.40
2023-02-13T16:51:48.544Z,11.73
2023-02-13T16:54:25.513Z,13.10
2023-02-13T16:57:13.022Z,12.10
2023-02-13T17:00:21.882Z,10.70
2023-02-13T17:02:50.775Z,10.07
2023-02-13T17:05:28.090Z,9.30
2023-02-13T17:08:01.359Z,10.87
2023-02-13T17:10:37.555Z,11.93
2023-02-13T17:13:19.276Z,11.07
2023-02-13T17:15:48.420Z,14.07
2023-02-13T17:18:15.350Z,12.17
2023-02-13T17:20:44.428Z,10.93
2023-02-13T17:23:24.040Z,13.50
2023-02-13T17:25:52.638Z,12.53
2023-02-13T17:28:26.829Z,12.17
2023-02-13T17:30:57.565Z,16.15
2023-02-13T17:33:28.241Z,14.07
2023-02-13T17:35:55.208Z,10.53
2023-02-13T17:38:22.360Z,18.00
2023-02-13T17:40:49.498Z,13.27
2023-02-13T17:43:20.556Z,15.80
2023-02-13T17:45:49.551Z,10.50
2023-02-13T17:48:16.832Z,14.60
2023-02-13T17:50:44.062Z,12.33
2023-02-13T17:53:26.153Z,15.23
2023-02-13T17:55:53.142Z,14.00
2023-02-13T17:58:20.040Z,15.40
2023-02-13T18:00:47.003Z,9.43
2023-02-13T18:03:14.184Z,13.13
2023-02-13T18:05:41.450Z,11.13
2023-02-13T18:08:08.917Z,14.47
2023-02-13T18:10:37.518Z,15.13
2023-02-13T18:13:04.797Z,13.07
2023-02-13T18:15:34.816Z,16.77
2023-02-13T18:18:01.975Z,14.43
2023-02-13T18:20:28.867Z,15.13
2023-02-13T18:22:55.764Z,15.13
2023-02-13T18:25:23.631Z,12.70
2023-02-13T18:27:51.067Z,13.80
2023-02-13T18:30:20.582Z,12.57
2023-02-13T18:32:53.533Z,16.70
2023-02-13T18:35:21.891Z,12.40
2023-02-13T18:37:49.909Z,15.20
2023-02-13T18:40:17.732Z,13.53
2023-02-13T18:42:44.906Z,15.63
2023-02-13T18:45:12.317Z,11.07
2023-02-13T18:47:39.585Z,13.40
2023-02-13T18:50:07.742Z,12.30
2023-02-13T18:52:35.172Z,13.60
2023-02-13T18:55:02.236Z,13.27
2023-02-13T18:57:29.122Z,16.10
2023-02-13T18:59:56.115Z,15.00
2023-02-13T19:02:23.436Z,15.67
2023-02-13T19:04:50.423Z,16.73
2023-02-13T19:07:17.319Z,16.83
2023-02-13T19:09:44.450Z,13.10
2023-02-13T19:12:11.564Z,14.13
2023-02-13T19:14:39.401Z,12.97
2023-02-13T19:17:08.446Z,15.53
2023-02-13T19:19:35.331Z,12.00
2023-02-13T19:22:03.325Z,14.90
2023-02-13T19:24:30.342Z,13.13
2023-02-13T19:26:57.216Z,13.07
2023-02-13T19:29:24.115Z,14.50
2023-02-13T19:31:51.034Z,12.17
2023-02-13T19:34:17.951Z,16.33
2023-02-13T19:36:44.834Z,13.27
2023-02-13T19:39:11.905Z,14.60
2023-02-13T19:41:40.574Z,17.13
2023-02-13T19:44:08.684Z,12.97
2023-02-13T19:46:37.155Z,15.47
2023-02-13T19:49:04.888Z,16.77
2023-02-13T19:51:33.872Z,15.00
2023-02-13T19:54:08.636Z,12.90
2023-02-13T19:56:38.491Z,16.30
2023-02-13T19:59:08.952Z,16.77
2023-02-13T20:01:35.870Z,19.07
2023-02-13T20:04:02.879Z,19.97
2023-02-13T20:06:36.364Z,18.83
2023-02-13T20:09:09.854Z,16.40
2023-02-13T20:11:37.158Z,19.30
2023-02-13T20:14:05.399Z,18.10
2023-02-13T20:16:35.355Z,17.13
2023-02-13T20:19:06.337Z,18.63
2023-02-13T20:21:34.373Z,20.40
2023-02-13T20:24:03.030Z,20.37
2023-02-13T20:26:30.168Z,16.67
2023-02-13T20:28:59.435Z,17.90
2023-02-13T20:31:27.330Z,15.87
2023-02-13T20:33:54.564Z,20.73
2023-02-13T20:36:28.227Z,16.23
2023-02-13T20:38:59.974Z,18.27
2023-02-13T20:41:29.981Z,21.30
2023-02-13T20:44:03.282Z,17.13
2023-02-13T20:46:35.490Z,17.27
2023-02-13T20:49:02.517Z,19.70
2023-02-13T20:51:29.663Z,19.70
2023-02-13T20:53:57.130Z,21.23
2023-02-13T20:56:25.616Z,20.10
2023-02-13T20:58:55.887Z,20.20
2023-02-13T21:01:35.482Z,23.10
2023-02-13T21:04:02.696Z,19.70
2023-02-13T21:06:33.462Z,18.67
2023-02-13T21:09:01.421Z,24.27
2023-02-13T21:11:29.420Z,24.37
2023-02-13T21:13:57.718Z,20.97
2023-02-13T21:16:29.272Z,23.73
2023-02-13T21:18:59.244Z,21.93
2023-02-13T21:21:31.276Z,19.60
2023-02-13T21:24:07.938Z,25.47
2023-02-13T21:26:35.851Z,19.83
2023-02-13T21:29:03.408Z,25.30
2023-02-13T21:31:44.144Z,24.43
2023-02-13T21:34:12.317Z,23.20
2023-02-13T21:36:40.617Z,26.10
2023-02-13T21:39:10.020Z,24.17
2023-02-13T21:41:39.265Z,23.73
2023-02-13T21:44:06.182Z,24.03
2023-02-13T21:46:34.070Z,25.87
2023-02-13T21:49:04.858Z,26.87
2023-02-13T21:51:34.951Z,22.80
2023-02-13T21:54:02.913Z,23.90
2023-02-13T21:56:33.147Z,22.03
2023-02-13T21:59:00.465Z,23.70
2023-02-13T22:01:33.869Z,24.37
2023-02-13T22:04:04.309Z,25.97
2023-02-13T22:06:34.479Z,24.67
2023-02-13T22:09:13.962Z,23.77
2023-02-13T22:11:42.299Z,25.00
2023-02-13T22:14:16.890Z,25.80
2023-02-13T22:16:45.172Z,26.90
2023-02-13T22:19:14.823Z,28.77
2023-02-13T22:21:41.745Z,25.43
2023-02-13T22:24:09.149Z,22.60
2023-02-13T22:26:39.003Z,25.80
2023-02-13T22:29:09.869Z,24.17
2023-02-13T22:31:37.150Z,29.70
2023-02-13T22:34:05.861Z,25.73
2023-02-13T22:36:40.476Z,23.17
2023-02-13T22:39:09.717Z,22.93
2023-02-13T22:41:37.063Z,21.33
2023-02-13T22:44:04.267Z,19.10
2023-02-13T22:46:33.661Z,20.10
2023-02-13T22:49:01.443Z,25.00
2023-02-13T22:51:34.493Z,24.70
2023-02-13T22:54:01.636Z,22.00
2023-02-13T22:56:30.165Z,20.10
2023-02-13T22:58:57.938Z,21.90
2023-02-13T23:01:26.967Z,19.33
2023-02-13T23:03:54.963Z,16.30
2023-02-13T23:06:22.645Z,18.17
2023-02-13T23:08:52.573Z,22.03
2023-02-13T23:11:41.498Z,18.20
2023-02-13T23:14:10.025Z,17.63
2023-02-13T23:16:57.726Z,21.80
2023-02-13T23:19:25.513Z,19.77
2023-02-13T23:21:52.415Z,24.80
2023-02-13T23:24:19.321Z,20.23
2023-02-13T23:26:46.203Z,23.80
2023-02-13T23:29:13.411Z,26.30
2023-02-13T23:31:40.449Z,22.77
2023-02-13T23:34:07.488Z,25.30
2023-02-13T23:36:34.832Z,23.30
2023-02-13T23:39:01.722Z,21.73
2023-02-13T23:41:28.817Z,18.10
2023-02-13T23:43:55.695Z,24.93
2023-02-13T23:46:22.657Z,19.73
2023-02-13T23:48:49.612Z,19.70
2023-02-13T23:51:18.318Z,21.30
2023-02-13T23:53:45.199Z,21.33
2023-02-13T23:56:12.097Z,20.77
2023-02-13T23:58:38.974Z,25.10
